Garland Springs, Arkansas
Current Conditions -  °F | °C
As of 5:56 AM on Monday 26 Jan 2015 (Local Time) from KSRC Reporting Station
Clear Clear  
Wind Chill:   Ceiling: Unl
Heat Index:   Visibility: 10mi
Dew Point: -2°   Wind: 6mph
Humidity: 73%   Direction: 340°NNW
Pressure: 30.11"   Gusts: NA
Location:  35.2847°N, 92.1468°W
Report Text: KSRC 261156Z AUTO 34005KT 10SM CLR 03/M02 A3011 RMK AO2 SLP204 T00281017 10061 20028 53010 TSNO
Loading
Personal Weather Stations






























Interactive Weather Map New forecast layout! Learn more

10-Day Weather Forecast

Advertisements
Track Severe Weather on mobile